Time;durP1;ratioP1;P1;durP2;ratioP2;P2;SDS_P1;SDS_P2;PMS_P1;PMS_P2;Temp;Humidity;BMP_temperature;BMP_pressure;BME280_temperature;BME280_humidity;BME280_pressure;Samples;Min_cycle;Max_cycle;Signal;HPM_P1;HPM_P2
2023/07/09 00:00:41;;;;;;;4.85;4.35;;;25.00;69.10;;;;;;2089091;28;20036;-71
2023/07/09 00:01:42;;;;;;;5.63;3.85;;;25.00;68.50;;;;;;2092169;28;20116;-71
2023/07/09 00:02:42;;;;;;;4.80;4.03;;;25.00;68.00;;;;;;2090022;28;20025;-71
2023/07/09 00:03:51;;;;;;;6.20;3.92;;;24.90;68.20;;;;;;2091876;28;20024;-70
2023/07/09 00:04:52;;;;;;;5.30;4.25;;;24.90;68.30;;;;;;2091067;28;20035;-71
2023/07/09 00:05:53;;;;;;;7.78;4.47;;;24.90;69.30;;;;;;2091989;28;20043;-71
2023/07/09 00:06:55;;;;;;;5.15;4.00;;;24.90;68.10;;;;;;2091521;28;20021;-71
2023/07/09 00:07:55;;;;;;;7.03;4.25;;;24.90;68.50;;;;;;2099864;28;20028;-71
2023/07/09 00:08:56;;;;;;;5.80;3.85;;;24.80;69.40;;;;;;2098780;28;20024;-71
2023/07/09 00:09:57;;;;;;;5.35;4.03;;;24.80;69.30;;;;;;2090990;28;20692;-71
2023/07/09 00:10:58;;;;;;;6.78;4.00;;;24.80;69.70;;;;;;2092684;28;20021;-71
2023/07/09 00:11:58;;;;;;;5.97;4.05;;;24.80;70.10;;;;;;2091501;28;20028;-70
2023/07/09 00:12:59;;;;;;;4.85;4.30;;;24.80;70.80;;;;;;2092276;28;20384;-70
2023/07/09 00:14:00;;;;;;;4.20;3.80;;;24.80;70.80;;;;;;2093130;28;20078;-70
2023/07/09 00:15:00;;;;;;;5.85;4.30;;;24.70;69.60;;;;;;2091944;28;20031;-70
2023/07/09 00:16:10;;;;;;;5.63;3.80;;;24.70;70.40;;;;;;2091851;28;20635;-70
2023/07/09 00:17:17;;;;;;;4.63;4.15;;;24.70;69.90;;;;;;2090774;28;20029;-70
2023/07/09 00:18:18;;;;;;;4.72;3.80;;;24.60;69.60;;;;;;2091996;28;20103;-70
2023/07/09 00:19:23;;;;;;;5.45;3.95;;;24.60;70.00;;;;;;2092919;28;20614;-70
2023/07/09 00:20:24;;;;;;;4.10;3.60;;;24.60;71.60;;;;;;2092721;28;20029;-70
2023/07/09 00:21:25;;;;;;;6.72;4.13;;;24.60;71.00;;;;;;2092539;28;20545;-70
2023/07/09 00:22:29;;;;;;;5.72;3.85;;;24.60;72.20;;;;;;2092611;28;20122;-70
2023/07/09 00:23:29;;;;;;;6.10;4.53;;;24.50;71.70;;;;;;2092561;28;20067;-70
2023/07/09 00:24:30;;;;;;;5.18;4.10;;;24.50;72.50;;;;;;2091088;28;20037;-70
2023/07/09 00:25:31;;;;;;;5.28;4.13;;;24.50;73.40;;;;;;2093080;28;20116;-70
2023/07/09 00:26:32;;;;;;;5.78;4.03;;;24.50;74.10;;;;;;2092026;28;20103;-70
2023/07/09 00:27:32;;;;;;;7.65;4.10;;;24.50;73.40;;;;;;2090433;28;20467;-70
2023/07/09 00:28:33;;;;;;;6.60;3.88;;;24.50;75.00;;;;;;2091769;28;20062;-70
2023/07/09 00:29:34;;;;;;;4.43;4.03;;;24.40;75.50;;;;;;2090803;28;20024;-70
2023/07/09 00:30:34;;;;;;;5.93;4.00;;;24.40;75.70;;;;;;2092394;28;20029;-70
2023/07/09 00:31:38;;;;;;;5.22;3.75;;;24.40;75.00;;;;;;2092527;28;20032;-70
2023/07/09 00:32:43;;;;;;;6.57;4.32;;;24.40;75.10;;;;;;2090848;28;20017;-70
2023/07/09 00:33:46;;;;;;;4.78;3.67;;;24.40;75.70;;;;;;2092405;28;20025;-70
2023/07/09 00:34:51;;;;;;;7.22;3.90;;;24.30;74.60;;;;;;2091014;28;20067;-70
2023/07/09 00:35:52;;;;;;;7.70;3.95;;;24.30;75.70;;;;;;2091491;28;20213;-70
2023/07/09 00:36:53;;;;;;;5.80;3.92;;;24.30;76.30;;;;;;2091836;28;20017;-70
2023/07/09 00:37:54;;;;;;;6.93;4.22;;;24.30;76.10;;;;;;2090594;28;20013;-70
2023/07/09 00:38:55;;;;;;;5.13;3.75;;;24.30;76.10;;;;;;2091565;28;20461;-70
2023/07/09 00:39:56;;;;;;;5.45;3.90;;;24.30;77.50;;;;;;2091659;28;20020;-70
2023/07/09 00:41:05;;;;;;;6.03;4.20;;;24.20;77.70;;;;;;2092622;28;20036;-70
2023/07/09 00:42:11;;;;;;;6.55;3.78;;;24.20;77.40;;;;;;2091518;28;20025;-70
2023/07/09 00:43:16;;;;;;;5.22;4.10;;;24.20;78.30;;;;;;2090231;28;20061;-70
2023/07/09 00:44:19;;;;;;;7.10;4.45;;;24.20;79.30;;;;;;2092446;28;20869;-70
2023/07/09 00:45:25;;;;;;;4.68;3.70;;;24.20;79.90;;;;;;2090654;28;20035;-70
2023/07/09 00:46:27;;;;;;;6.22;3.70;;;24.10;80.40;;;;;;2091211;28;20025;-70
2023/07/09 00:47:35;;;;;;;5.80;3.83;;;24.10;80.60;;;;;;2091758;28;20033;-70
2023/07/09 00:48:36;;;;;;;5.38;4.05;;;24.10;79.80;;;;;;2092706;28;20079;-70
2023/07/09 00:49:46;;;;;;;4.43;3.70;;;24.10;81.30;;;;;;2090384;28;20025;-70
2023/07/09 00:50:50;;;;;;;4.82;3.85;;;24.00;81.30;;;;;;2093852;28;20024;-70
2023/07/09 00:51:52;;;;;;;4.63;4.03;;;24.00;82.50;;;;;;2092258;28;20029;-70
2023/07/09 00:52:56;;;;;;;4.97;3.30;;;24.00;80.70;;;;;;2093271;28;20016;-70
2023/07/09 00:54:00;;;;;;;5.70;3.65;;;24.00;81.00;;;;;;2092131;28;20372;-70
2023/07/09 00:55:10;;;;;;;4.80;3.65;;;23.90;80.20;;;;;;2092278;28;20029;-70
2023/07/09 00:56:14;;;;;;;6.57;4.30;;;23.90;81.50;;;;;;2092298;28;20028;-70
2023/07/09 00:57:19;;;;;;;6.65;3.78;;;23.90;82.40;;;;;;2091344;28;20032;-70
2023/07/09 00:58:21;;;;;;;6.75;4.72;;;23.90;82.60;;;;;;2093047;28;20111;-70
2023/07/09 00:59:25;;;;;;;6.53;4.07;;;23.90;83.70;;;;;;2090984;28;20074;-70
2023/07/09 01:00:42;;;;;;;4.47;3.53;;;23.90;84.80;;;;;;2091392;28;20380;-70
2023/07/09 01:01:42;;;;;;;5.28;4.22;;;23.90;84.40;;;;;;2093495;28;20086;-70
2023/07/09 01:02:46;;;;;;;5.68;4.15;;;23.80;84.80;;;;;;2090192;28;20036;-70
2023/07/09 01:03:53;;;;;;;6.43;3.85;;;23.80;85.90;;;;;;2091837;28;20025;-70
2023/07/09 01:05:00;;;;;;;5.03;3.92;;;23.80;86.60;;;;;;2092191;28;20380;-70
2023/07/09 01:06:01;;;;;;;6.13;4.03;;;23.80;84.40;;;;;;2092188;28;20123;-70
2023/07/09 01:07:02;;;;;;;5.63;3.60;;;23.80;86.50;;;;;;2091131;28;20032;-70
2023/07/09 01:08:03;;;;;;;4.68;4.10;;;23.70;86.60;;;;;;2090714;28;20033;-70
2023/07/09 01:09:04;;;;;;;5.47;4.57;;;23.70;87.80;;;;;;2094440;28;20039;-70
2023/07/09 01:10:05;;;;;;;5.90;3.92;;;23.70;88.20;;;;;;2094642;28;20037;-70
2023/07/09 01:11:21;;;;;;;6.55;3.85;;;23.60;87.90;;;;;;2091916;28;20025;-70
2023/07/09 01:12:22;;;;;;;5.63;4.10;;;23.60;88.60;;;;;;2091379;28;20017;-70
2023/07/09 01:13:23;;;;;;;4.55;4.15;;;23.60;89.80;;;;;;2091479;28;20032;-70
2023/07/09 01:14:25;;;;;;;7.18;4.50;;;23.60;89.50;;;;;;2091476;28;20017;-70
2023/07/09 01:15:26;;;;;;;6.43;4.38;;;23.60;90.10;;;;;;2090180;28;20021;-70
2023/07/09 01:16:33;;;;;;;4.68;3.85;;;23.60;90.60;;;;;;2091366;28;20768;-70
2023/07/09 01:17:34;;;;;;;6.15;3.85;;;23.60;90.60;;;;;;2093544;28;20404;-70
2023/07/09 01:18:36;;;;;;;5.03;3.83;;;23.60;91.10;;;;;;2091999;28;20025;-70
2023/07/09 01:19:42;;;;;;;5.10;4.15;;;23.50;91.40;;;;;;2091344;28;20084;-70
2023/07/09 01:20:43;;;;;;;4.38;3.97;;;23.50;92.20;;;;;;2090990;28;20519;-70
2023/07/09 01:21:44;;;;;;;8.13;4.03;;;23.50;91.90;;;;;;2092338;28;20464;-70
2023/07/09 01:22:44;;;;;;;4.65;4.13;;;23.50;92.00;;;;;;2094129;28;20021;-70
2023/07/09 01:23:47;;;;;;;5.75;3.97;;;23.50;92.20;;;;;;2091889;28;20037;-70
2023/07/09 01:24:53;;;;;;;5.45;4.20;;;23.50;92.00;;;;;;2092133;28;20037;-70
2023/07/09 01:25:54;;;;;;;6.75;3.95;;;23.50;92.60;;;;;;2092383;28;20037;-70
2023/07/09 01:26:54;;;;;;;5.53;3.90;;;23.40;93.30;;;;;;2093517;28;20033;-70
2023/07/09 01:27:55;;;;;;;6.13;4.40;;;23.40;92.50;;;;;;2093105;28;20033;-71
2023/07/09 01:28:57;;;;;;;5.07;3.70;;;23.40;92.80;;;;;;2091617;28;20384;-71
2023/07/09 01:29:59;;;;;;;5.70;3.58;;;23.40;92.20;;;;;;2089590;28;20074;-71
2023/07/09 01:31:00;;;;;;;6.28;3.97;;;23.40;92.60;;;;;;2092494;28;20052;-71
2023/07/09 01:32:00;;;;;;;5.90;4.03;;;23.40;93.10;;;;;;2091879;28;20066;-71
2023/07/09 01:33:02;;;;;;;6.57;4.43;;;23.30;93.80;;;;;;2090526;28;20017;-71
2023/07/09 01:34:02;;;;;;;6.70;4.70;;;23.30;92.80;;;;;;2092752;28;20521;-70
2023/07/09 01:35:06;;;;;;;4.57;3.88;;;23.30;93.30;;;;;;2091037;28;20420;-70
2023/07/09 01:36:08;;;;;;;6.15;4.43;;;23.30;93.10;;;;;;2092273;28;20074;-70
2023/07/09 01:37:08;;;;;;;7.57;4.07;;;23.30;94.30;;;;;;2091531;28;20073;-70
2023/07/09 01:38:09;;;;;;;5.40;4.05;;;23.20;94.90;;;;;;2092868;28;20090;-70
2023/07/09 01:39:10;;;;;;;5.72;4.05;;;23.20;95.00;;;;;;2093550;28;20032;-70
2023/07/09 01:40:13;;;;;;;7.05;4.25;;;23.20;95.00;;;;;;2094759;28;20025;-70
2023/07/09 01:41:14;;;;;;;4.78;3.85;;;23.20;94.80;;;;;;2094113;28;20067;-70
2023/07/09 01:42:15;;;;;;;5.65;4.07;;;23.20;95.20;;;;;;2093415;28;20078;-70
2023/07/09 01:43:15;;;;;;;6.78;4.38;;;23.20;95.30;;;;;;2093311;28;20400;-70
2023/07/09 01:44:16;;;;;;;5.47;4.38;;;23.10;96.20;;;;;;2093075;28;20020;-70
2023/07/09 01:45:17;;;;;;;5.22;4.72;;;23.10;96.10;;;;;;2092865;28;20032;-70
2023/07/09 01:46:17;;;;;;;6.38;4.18;;;23.10;96.70;;;;;;2092394;28;20017;-70
2023/07/09 01:47:18;;;;;;;6.30;4.25;;;23.10;97.30;;;;;;2092690;28;20036;-70
2023/07/09 01:48:20;;;;;;;6.20;4.30;;;23.10;97.70;;;;;;2095200;28;20044;-70
2023/07/09 01:49:20;;;;;;;7.43;4.60;;;23.10;98.50;;;;;;2091991;28;20021;-70
2023/07/09 01:50:23;;;;;;;4.50;4.10;;;23.10;98.30;;;;;;2092622;28;20071;-70
2023/07/09 01:51:25;;;;;;;6.18;4.32;;;23.10;97.00;;;;;;2092547;28;20028;-70
2023/07/09 01:52:29;;;;;;;4.25;3.85;;;23.00;97.10;;;;;;2093533;28;20017;-70
2023/07/09 01:53:31;;;;;;;5.63;3.90;;;23.00;98.20;;;;;;2093863;28;20078;-70
2023/07/09 01:54:33;;;;;;;5.95;4.25;;;23.00;97.10;;;;;;2092395;28;20024;-70
2023/07/09 01:55:34;;;;;;;6.10;4.43;;;23.00;97.50;;;;;;2093143;28;20013;-70
2023/07/09 01:56:38;;;;;;;7.68;4.03;;;22.90;98.70;;;;;;2093559;28;20024;-70
2023/07/09 01:57:40;;;;;;;7.70;4.97;;;22.90;98.80;;;;;;2093745;28;20036;-70
2023/07/09 01:58:41;;;;;;;6.72;4.00;;;22.90;98.90;;;;;;2094571;28;20036;-70
2023/07/09 01:59:42;;;;;;;4.63;4.15;;;22.90;99.60;;;;;;2094413;28;20606;-70
2023/07/09 02:00:44;;;;;;;4.57;4.13;;;22.90;99.20;;;;;;2092684;28;20025;-70
2023/07/09 02:01:45;;;;;;;5.15;4.10;;;22.90;99.30;;;;;;2093779;28;20025;-70
2023/07/09 02:02:46;;;;;;;4.70;4.13;;;22.80;99.30;;;;;;2093190;28;20041;-70
2023/07/09 02:03:47;;;;;;;3.85;3.47;;;22.90;99.70;;;;;;2094324;28;20169;-70
2023/07/09 02:04:50;;;;;;;4.50;3.70;;;22.80;99.20;;;;;;2092280;28;20123;-70
2023/07/09 02:05:53;;;;;;;6.45;4.68;;;22.80;99.70;;;;;;2093277;28;20040;-70
2023/07/09 02:06:54;;;;;;;6.10;4.35;;;22.80;99.90;;;;;;2083074;28;20032;-70
2023/07/09 02:07:54;;;;;;;4.97;4.20;;;22.80;99.90;;;;;;2078477;28;20057;-70
2023/07/09 02:08:55;;;;;;;5.70;4.40;;;22.80;99.90;;;;;;2093795;28;20036;-70
2023/07/09 02:09:55;;;;;;;6.43;3.97;;;22.80;99.90;;;;;;2100010;28;20494;-70
2023/07/09 02:10:56;;;;;;;5.18;3.90;;;22.70;99.90;;;;;;2091537;28;20056;-70
2023/07/09 02:11:56;;;;;;;5.20;4.05;;;22.70;99.90;;;;;;2094241;28;20028;-70
2023/07/09 02:12:57;;;;;;;5.47;4.40;;;22.70;99.90;;;;;;2092808;28;20484;-70
2023/07/09 02:13:58;;;;;;;4.93;4.53;;;22.70;99.90;;;;;;2096200;28;20389;-70
2023/07/09 02:14:58;;;;;;;6.45;3.95;;;22.70;99.90;;;;;;2096555;28;20017;-70
2023/07/09 02:15:59;;;;;;;7.28;4.70;;;22.70;99.90;;;;;;2091388;28;20035;-70
2023/07/09 02:16:59;;;;;;;5.75;4.15;;;22.70;99.90;;;;;;2091720;28;20123;-70
2023/07/09 02:18:01;;;;;;;4.53;3.70;;;22.60;99.90;;;;;;2092739;28;20036;-70
2023/07/09 02:19:02;;;;;;;5.40;4.20;;;22.60;99.90;;;;;;2092736;28;20476;-70
2023/07/09 02:20:04;;;;;;;5.90;4.05;;;22.60;99.90;;;;;;2093443;28;20588;-70
2023/07/09 02:21:05;;;;;;;4.57;3.90;;;22.60;99.90;;;;;;2092286;28;20037;-70
2023/07/09 02:22:07;;;;;;;5.47;4.10;;;22.60;99.90;;;;;;2093105;28;20029;-70
2023/07/09 02:23:08;;;;;;;4.97;3.80;;;22.60;99.90;;;;;;2091850;28;20387;-70
2023/07/09 02:24:09;;;;;;;7.03;4.85;;;22.60;99.90;;;;;;2092518;28;20017;-70
2023/07/09 02:25:09;;;;;;;6.05;4.32;;;22.60;99.90;;;;;;2093994;28;20083;-70
2023/07/09 02:26:10;;;;;;;5.22;4.45;;;22.60;99.90;;;;;;2091592;28;20017;-70
2023/07/09 02:27:12;;;;;;;5.15;3.97;;;22.50;99.90;;;;;;2092383;28;21944;-70
2023/07/09 02:28:13;;;;;;;5.65;4.25;;;22.50;99.90;;;;;;2093113;28;20013;-70
2023/07/09 02:29:13;;;;;;;4.25;3.85;;;22.50;99.90;;;;;;2091582;28;20047;-70
2023/07/09 02:30:14;;;;;;;6.43;4.75;;;22.50;99.90;;;;;;2089896;28;20061;-70
2023/07/09 02:31:15;;;;;;;4.68;4.05;;;22.50;99.90;;;;;;2093360;28;20021;-70
2023/07/09 02:32:22;;;;;;;5.43;4.47;;;22.50;99.90;;;;;;2091979;28;20025;-70
2023/07/09 02:33:23;;;;;;;4.20;3.80;;;22.40;99.90;;;;;;2093248;28;20013;-70
2023/07/09 02:34:28;;;;;;;6.18;4.30;;;22.40;99.90;;;;;;2092984;28;20021;-70
2023/07/09 02:35:28;;;;;;;5.15;4.40;;;22.40;99.90;;;;;;2091705;28;20099;-70
2023/07/09 02:36:29;;;;;;;5.90;4.45;;;22.40;99.90;;;;;;2092412;28;20017;-70
2023/07/09 02:37:30;;;;;;;4.93;4.18;;;22.40;99.90;;;;;;2091217;28;20079;-70
2023/07/09 02:38:30;;;;;;;4.82;4.25;;;22.40;99.90;;;;;;2091655;28;20132;-70
2023/07/09 02:39:31;;;;;;;4.85;4.35;;;22.40;99.90;;;;;;2092015;28;20404;-70
2023/07/09 02:40:33;;;;;;;4.47;4.07;;;22.40;99.90;;;;;;2090555;28;20424;-70
2023/07/09 02:41:34;;;;;;;7.10;4.93;;;22.30;99.90;;;;;;2094753;28;20027;-70
2023/07/09 02:42:34;;;;;;;7.43;4.80;;;22.40;99.90;;;;;;2091633;28;20029;-70
2023/07/09 02:43:36;;;;;;;6.82;4.43;;;22.30;99.90;;;;;;2092554;28;20017;-70
2023/07/09 02:44:37;;;;;;;7.72;4.88;;;22.30;99.90;;;;;;2093545;28;20499;-70
2023/07/09 02:45:37;;;;;;;4.53;3.88;;;22.30;99.90;;;;;;2092627;28;20063;-70
2023/07/09 02:46:38;;;;;;;4.95;4.40;;;22.30;99.90;;;;;;2092566;28;20070;-70
2023/07/09 02:47:38;;;;;;;4.35;3.95;;;22.30;99.90;;;;;;2092507;28;20078;-70
2023/07/09 02:48:39;;;;;;;7.55;4.60;;;22.30;99.90;;;;;;2093115;28;20029;-70
2023/07/09 02:49:39;;;;;;;4.57;4.00;;;22.30;99.90;;;;;;2093730;28;20427;-70
2023/07/09 02:50:40;;;;;;;5.57;4.63;;;22.20;99.90;;;;;;2091297;28;20024;-70
2023/07/09 02:51:41;;;;;;;7.20;4.43;;;22.20;99.90;;;;;;2093014;28;20017;-70
2023/07/09 02:52:42;;;;;;;6.40;4.63;;;22.20;99.90;;;;;;2093703;28;20032;-70
2023/07/09 02:53:42;;;;;;;4.40;4.00;;;22.20;99.90;;;;;;2091774;28;20043;-70
2023/07/09 02:54:43;;;;;;;5.28;4.18;;;22.20;99.90;;;;;;2093436;28;20025;-70
2023/07/09 02:55:43;;;;;;;5.40;4.60;;;22.20;99.90;;;;;;2092319;28;20028;-70
2023/07/09 02:56:44;;;;;;;5.22;4.28;;;22.10;99.90;;;;;;2094323;28;20029;-70
2023/07/09 02:57:44;;;;;;;4.35;3.95;;;22.10;99.90;;;;;;2091646;28;20609;-70
2023/07/09 02:58:45;;;;;;;4.72;4.22;;;22.10;99.90;;;;;;2092638;28;20020;-70
2023/07/09 02:59:45;;;;;;;7.38;4.85;;;22.10;99.90;;;;;;2092109;28;20063;-70
2023/07/09 03:00:51;;;;;;;6.88;4.65;;;22.10;99.90;;;;;;2093599;28;20040;-70
2023/07/09 03:01:52;;;;;;;6.75;4.88;;;22.10;99.90;;;;;;2092486;28;20036;-70
2023/07/09 03:02:53;;;;;;;5.82;4.38;;;22.10;99.90;;;;;;2093964;28;20480;-70
2023/07/09 03:03:55;;;;;;;5.57;4.65;;;22.10;99.90;;;;;;2091131;28;20025;-70
2023/07/09 03:04:55;;;;;;;5.38;4.32;;;22.10;99.90;;;;;;2091503;28;20461;-70
2023/07/09 03:05:56;;;;;;;5.95;4.50;;;22.10;99.90;;;;;;2089969;28;20056;-70
2023/07/09 03:06:57;;;;;;;6.35;4.63;;;22.10;99.90;;;;;;2090796;28;20028;-70
2023/07/09 03:07:57;;;;;;;5.80;4.82;;;22.00;99.90;;;;;;2090541;28;20123;-70
2023/07/09 03:08:59;;;;;;;7.03;4.50;;;22.00;99.90;;;;;;2092180;28;20575;-70
2023/07/09 03:10:00;;;;;;;6.05;4.00;;;22.10;99.90;;;;;;2090539;28;20017;-70
2023/07/09 03:11:07;;;;;;;5.63;4.78;;;22.10;99.90;;;;;;2091627;28;20032;-70
2023/07/09 03:12:08;;;;;;;7.30;4.80;;;22.00;99.90;;;;;;2093363;28;20822;-70
2023/07/09 03:13:09;;;;;;;5.85;4.80;;;22.00;99.90;;;;;;2092655;28;20577;-70
2023/07/09 03:14:09;;;;;;;6.47;4.88;;;22.00;99.90;;;;;;2091218;28;20070;-70
2023/07/09 03:15:11;;;;;;;6.25;4.47;;;22.00;99.90;;;;;;2092703;28;20020;-70
2023/07/09 03:16:12;;;;;;;5.45;4.50;;;22.00;99.90;;;;;;2092486;28;20543;-71
2023/07/09 03:17:13;;;;;;;5.25;4.72;;;22.00;99.90;;;;;;2091866;28;20020;-71
2023/07/09 03:18:13;;;;;;;6.47;4.47;;;22.00;99.90;;;;;;2091013;28;20107;-71
2023/07/09 03:19:14;;;;;;;5.18;4.68;;;22.00;99.90;;;;;;2092571;28;20025;-71
2023/07/09 03:20:14;;;;;;;6.18;4.72;;;21.90;99.90;;;;;;2091218;28;20024;-70
2023/07/09 03:21:15;;;;;;;4.40;3.72;;;21.90;99.90;;;;;;2091598;28;20559;-70
2023/07/09 03:22:16;;;;;;;4.93;4.38;;;22.00;99.90;;;;;;2091603;28;20032;-70
2023/07/09 03:23:17;;;;;;;4.88;4.38;;;21.90;99.90;;;;;;2090662;28;20032;-70
2023/07/09 03:24:18;;;;;;;4.22;3.83;;;21.90;99.90;;;;;;2091068;28;20024;-71
2023/07/09 03:25:19;;;;;;;4.80;4.30;;;21.90;99.90;;;;;;2094340;28;20154;-71
2023/07/09 03:26:20;;;;;;;5.82;4.47;;;21.90;99.90;;;;;;2091320;28;20017;-71
2023/07/09 03:27:20;;;;;;;5.07;4.57;;;21.90;99.90;;;;;;2092820;28;20033;-71
2023/07/09 03:28:21;;;;;;;6.40;5.10;;;21.90;99.90;;;;;;2092888;28;20025;-71
2023/07/09 03:29:21;;;;;;;6.22;4.25;;;21.90;99.90;;;;;;2093782;28;20671;-71
2023/07/09 03:30:22;;;;;;;6.68;4.85;;;21.90;99.90;;;;;;2092765;28;20029;-71
2023/07/09 03:31:23;;;;;;;7.05;4.38;;;21.90;99.90;;;;;;2090691;28;20029;-71
2023/07/09 03:32:23;;;;;;;5.57;4.65;;;21.90;99.90;;;;;;2093257;28;20040;-70
2023/07/09 03:33:24;;;;;;;8.93;5.10;;;21.90;99.90;;;;;;2094275;28;20103;-70
2023/07/09 03:34:25;;;;;;;5.35;4.13;;;21.90;99.90;;;;;;2092262;28;20028;-70
2023/07/09 03:35:26;;;;;;;4.85;4.32;;;21.90;99.90;;;;;;2092275;28;20048;-70
2023/07/09 03:36:26;;;;;;;7.90;4.63;;;21.90;99.90;;;;;;2091918;28;20036;-70
2023/07/09 03:37:27;;;;;;;8.60;4.90;;;21.80;99.90;;;;;;2092473;28;20028;-70
2023/07/09 03:38:27;;;;;;;6.75;4.72;;;21.80;99.90;;;;;;2094450;28;20029;-70
2023/07/09 03:39:28;;;;;;;5.13;4.50;;;21.80;99.90;;;;;;2092688;28;20033;-70
2023/07/09 03:40:29;;;;;;;5.20;4.35;;;21.80;99.90;;;;;;2091587;28;20033;-70
2023/07/09 03:41:29;;;;;;;5.18;4.60;;;21.80;99.90;;;;;;2091930;28;20024;-70
2023/07/09 03:42:30;;;;;;;5.25;4.63;;;21.80;99.90;;;;;;2092200;28;20364;-70
2023/07/09 03:43:30;;;;;;;5.13;4.50;;;21.80;99.90;;;;;;2093068;28;20051;-70
2023/07/09 03:44:31;;;;;;;6.60;4.85;;;21.80;99.90;;;;;;2090737;28;20024;-70
2023/07/09 03:45:32;;;;;;;5.35;4.18;;;21.80;99.90;;;;;;2092559;28;20057;-70
2023/07/09 03:46:33;;;;;;;6.90;4.72;;;21.80;99.90;;;;;;2092019;28;20103;-70
2023/07/09 03:47:33;;;;;;;7.80;4.75;;;21.80;99.90;;;;;;2090774;28;20029;-70
2023/07/09 03:48:34;;;;;;;7.32;5.35;;;21.80;99.90;;;;;;2095113;28;20070;-70
2023/07/09 03:49:35;;;;;;;5.78;4.80;;;21.80;99.90;;;;;;2091852;28;20055;-70
2023/07/09 03:50:35;;;;;;;5.75;4.53;;;21.80;99.90;;;;;;2090699;28;20491;-70
2023/07/09 03:51:36;;;;;;;7.18;5.13;;;21.70;99.90;;;;;;2093460;28;20036;-70
2023/07/09 03:52:36;;;;;;;9.75;4.72;;;21.70;99.90;;;;;;2091238;28;20697;-70
2023/07/09 03:53:37;;;;;;;7.55;4.82;;;21.80;99.90;;;;;;2092336;28;20949;-70
2023/07/09 03:54:37;;;;;;;5.32;4.60;;;21.80;99.90;;;;;;2091928;28;20021;-70
2023/07/09 03:55:38;;;;;;;7.32;4.28;;;21.80;99.90;;;;;;2092547;28;20028;-70
2023/07/09 03:56:38;;;;;;;4.80;3.92;;;21.70;99.90;;;;;;2092723;28;20100;-70
2023/07/09 03:57:40;;;;;;;7.35;5.07;;;21.70;99.90;;;;;;2091758;28;20023;-70
2023/07/09 03:58:40;;;;;;;6.47;4.93;;;21.70;99.90;;;;;;2093435;28;20502;-70
2023/07/09 03:59:41;;;;;;;5.95;4.50;;;21.70;99.90;;;;;;2092670;28;20400;-70
2023/07/09 04:00:41;;;;;;;6.90;4.63;;;21.70;99.90;;;;;;2092618;28;20514;-70
2023/07/09 04:01:45;;;;;;;6.70;4.50;;;21.70;99.90;;;;;;2090943;28;20028;-70
2023/07/09 04:02:46;;;;;;;7.15;4.38;;;21.70;99.90;;;;;;2091058;28;20035;-70
2023/07/09 04:03:46;;;;;;;7.07;4.38;;;21.70;99.90;;;;;;2093027;28;20071;-70
2023/07/09 04:04:47;;;;;;;5.97;4.47;;;21.70;99.90;;;;;;2091803;28;20036;-70
2023/07/09 04:05:48;;;;;;;5.47;4.93;;;21.70;99.90;;;;;;2090777;28;20029;-70
2023/07/09 04:06:49;;;;;;;6.53;5.00;;;21.70;99.90;;;;;;2091743;28;20104;-70
2023/07/09 04:07:49;;;;;;;5.03;4.32;;;21.70;99.90;;;;;;2092651;28;20044;-70
2023/07/09 04:08:50;;;;;;;6.63;4.93;;;21.70;99.90;;;;;;2092718;28;20020;-70
2023/07/09 04:09:50;;;;;;;5.57;4.35;;;21.80;99.90;;;;;;2093928;28;20162;-70
2023/07/09 04:10:55;;;;;;;5.47;4.47;;;21.80;99.90;;;;;;2091158;28;20393;-70
2023/07/09 04:11:55;;;;;;;6.18;4.70;;;21.80;99.90;;;;;;2091253;28;20036;-70
2023/07/09 04:12:56;;;;;;;8.93;4.45;;;21.80;99.90;;;;;;2092836;28;20116;-70
2023/07/09 04:13:56;;;;;;;7.38;4.60;;;21.80;99.90;;;;;;2095075;28;20025;-70
2023/07/09 04:14:57;;;;;;;5.55;4.90;;;21.90;99.90;;;;;;2094695;28;20111;-70
2023/07/09 04:15:57;;;;;;;6.22;5.05;;;21.90;99.90;;;;;;2091394;28;20037;-70
2023/07/09 04:16:58;;;;;;;8.20;4.72;;;21.90;99.90;;;;;;2090473;28;20024;-70
2023/07/09 04:17:58;;;;;;;5.75;4.57;;;21.90;99.90;;;;;;2092694;28;20107;-70
2023/07/09 04:18:59;;;;;;;6.88;5.30;;;22.00;99.90;;;;;;2091166;28;20021;-70
2023/07/09 04:20:00;;;;;;;5.65;4.60;;;22.00;99.90;;;;;;2092144;28;20052;-70
2023/07/09 04:21:00;;;;;;;7.68;4.88;;;22.10;99.90;;;;;;2090382;28;20021;-70
2023/07/09 04:22:01;;;;;;;5.22;4.30;;;22.10;99.90;;;;;;2092098;28;20037;-70
2023/07/09 04:23:01;;;;;;;4.78;4.28;;;22.20;99.90;;;;;;2092745;28;20021;-70
2023/07/09 04:24:02;;;;;;;5.43;4.20;;;22.20;99.90;;;;;;2091147;28;20029;-70
2023/07/09 04:25:06;;;;;;;6.15;4.60;;;22.20;99.90;;;;;;2091855;28;20031;-70
2023/07/09 04:26:12;;;;;;;4.80;4.32;;;22.30;99.90;;;;;;2091931;28;20040;-70
2023/07/09 04:27:13;;;;;;;8.00;4.75;;;22.30;99.90;;;;;;2093509;28;20051;-70
2023/07/09 04:28:14;;;;;;;7.68;4.63;;;22.40;99.90;;;;;;2090947;28;20500;-70
2023/07/09 04:29:15;;;;;;;5.63;4.75;;;22.50;99.90;;;;;;2091791;28;20029;-70
2023/07/09 04:30:15;;;;;;;5.43;4.50;;;22.60;99.90;;;;;;2092490;28;20024;-70
2023/07/09 04:31:16;;;;;;;4.97;4.38;;;22.70;99.90;;;;;;2094545;28;20029;-70
2023/07/09 04:32:16;;;;;;;6.30;4.70;;;22.70;99.90;;;;;;2091842;28;20115;-70
2023/07/09 04:33:18;;;;;;;6.90;4.78;;;22.80;99.90;;;;;;2091448;28;20029;-70
2023/07/09 04:34:19;;;;;;;5.25;4.20;;;22.80;99.90;;;;;;2094305;28;20029;-70
2023/07/09 04:35:19;;;;;;;7.68;4.88;;;22.90;99.90;;;;;;2094370;28;20017;-70
2023/07/09 04:36:20;;;;;;;7.30;4.78;;;22.90;99.90;;;;;;2092942;28;20026;-70
2023/07/09 04:37:20;;;;;;;6.70;4.43;;;22.90;99.90;;;;;;2092893;28;20038;-70
2023/07/09 04:38:21;;;;;;;9.18;4.88;;;22.90;99.90;;;;;;2092184;28;20035;-70
2023/07/09 04:39:21;;;;;;;6.90;5.07;;;22.90;99.90;;;;;;2090622;28;20115;-70
2023/07/09 04:40:22;;;;;;;6.65;4.68;;;22.90;99.90;;;;;;2090890;28;20032;-70
2023/07/09 04:41:23;;;;;;;6.97;4.78;;;22.90;99.90;;;;;;2092204;28;20032;-70
2023/07/09 04:42:23;;;;;;;7.90;4.32;;;22.90;99.90;;;;;;2092185;28;20044;-70
2023/07/09 04:43:24;;;;;;;8.90;5.28;;;22.90;99.90;;;;;;2091040;28;20075;-70
2023/07/09 04:44:24;;;;;;;5.88;4.30;;;22.90;99.90;;;;;;2091533;28;20028;-70
2023/07/09 04:45:25;;;;;;;5.40;4.18;;;23.00;99.90;;;;;;2092722;28;20020;-70
2023/07/09 04:46:25;;;;;;;5.55;4.68;;;23.00;99.90;;;;;;2092197;28;20028;-70
2023/07/09 04:47:26;;;;;;;5.53;4.80;;;23.00;99.90;;;;;;2091409;28;20029;-70
2023/07/09 04:48:26;;;;;;;5.07;4.57;;;23.10;99.90;;;;;;2092680;28;20029;-70
2023/07/09 04:49:27;;;;;;;5.30;4.72;;;23.10;99.90;;;;;;2094225;28;20028;-70
2023/07/09 04:50:27;;;;;;;6.70;4.47;;;23.10;99.90;;;;;;2090007;28;20488;-70
2023/07/09 04:51:28;;;;;;;6.35;4.47;;;23.20;99.90;;;;;;2092008;28;20067;-70
2023/07/09 04:52:30;;;;;;;4.65;4.15;;;23.20;99.90;;;;;;2091795;28;20020;-70
2023/07/09 04:53:30;;;;;;;6.47;4.38;;;23.20;99.90;;;;;;2092481;28;20025;-70
2023/07/09 04:54:32;;;;;;;5.88;4.32;;;23.30;99.90;;;;;;2092608;28;20045;-70
2023/07/09 04:55:33;;;;;;;7.22;4.47;;;23.30;99.90;;;;;;2091296;28;20357;-70
2023/07/09 04:56:33;;;;;;;5.35;4.18;;;23.40;99.90;;;;;;2092423;28;20081;-70
2023/07/09 04:57:34;;;;;;;6.03;4.07;;;23.40;99.90;;;;;;2091947;28;20029;-70
2023/07/09 04:58:35;;;;;;;7.78;5.07;;;23.50;99.90;;;;;;2091295;28;20021;-70
2023/07/09 04:59:35;;;;;;;7.30;4.75;;;23.50;99.90;;;;;;2090401;28;20095;-70
2023/07/09 05:00:36;;;;;;;5.88;4.50;;;23.60;99.90;;;;;;2090149;28;20029;-70
2023/07/09 05:01:37;;;;;;;5.85;4.18;;;23.60;99.90;;;;;;2090181;28;20033;-70
2023/07/09 05:02:37;;;;;;;5.72;4.50;;;23.70;99.90;;;;;;2091013;28;20142;-70
2023/07/09 05:03:38;;;;;;;6.35;4.88;;;23.70;99.90;;;;;;2090931;28;20769;-70
2023/07/09 05:04:39;;;;;;;5.35;4.82;;;23.80;99.90;;;;;;2091831;28;20024;-70
2023/07/09 05:05:44;;;;;;;6.55;4.13;;;23.90;99.90;;;;;;2091997;28;20423;-70
2023/07/09 05:06:44;;;;;;;10.00;5.30;;;23.90;99.90;;;;;;2093243;28;20024;-70
2023/07/09 05:07:45;;;;;;;8.63;4.78;;;24.00;99.90;;;;;;2092518;28;20135;-70
2023/07/09 05:08:47;;;;;;;8.55;4.55;;;24.10;99.90;;;;;;2093300;28;20078;-70
2023/07/09 05:09:48;;;;;;;6.13;4.70;;;24.10;99.90;;;;;;2091073;28;20434;-70
2023/07/09 05:10:51;;;;;;;6.35;4.70;;;24.20;99.90;;;;;;2092465;28;20025;-70
2023/07/09 05:11:52;;;;;;;6.13;4.70;;;24.30;99.90;;;;;;2090490;28;20433;-70
2023/07/09 05:12:54;;;;;;;7.28;4.78;;;24.40;99.90;;;;;;2091311;28;20118;-70
2023/07/09 05:13:55;;;;;;;8.00;4.60;;;24.40;99.90;;;;;;2092248;28;20092;-70
2023/07/09 05:14:56;;;;;;;6.75;4.30;;;24.50;99.90;;;;;;2091207;28;20480;-70
2023/07/09 05:15:56;;;;;;;6.03;4.90;;;24.60;99.90;;;;;;2090351;28;20421;-70
2023/07/09 05:16:57;;;;;;;7.05;4.20;;;24.60;99.90;;;;;;2090582;28;20098;-70
2023/07/09 05:17:57;;;;;;;6.72;4.38;;;24.70;99.90;;;;;;2090726;28;20052;-70
2023/07/09 05:18:58;;;;;;;5.70;4.82;;;24.80;99.90;;;;;;2093847;28;20020;-70
2023/07/09 05:19:58;;;;;;;7.80;4.80;;;24.90;99.90;;;;;;2092271;28;20021;-70
2023/07/09 05:20:59;;;;;;;4.20;3.75;;;25.00;99.90;;;;;;2090132;28;20031;-70